createdAt,value
2019-03-23T00:00:37.419Z,65.07
2019-03-23T00:03:06.302Z,62.70
2019-03-23T00:05:35.202Z,64.37
2019-03-23T00:08:04.307Z,59.67
2019-03-23T00:10:33.260Z,65.40
2019-03-23T00:13:02.173Z,56.07
2019-03-23T00:15:31.059Z,54.58
2019-03-23T00:17:59.966Z,62.73
2019-03-23T00:20:28.888Z,48.25
2019-03-23T00:22:57.780Z,57.83
2019-03-23T00:25:26.730Z,59.40
2019-03-23T00:27:55.624Z,62.90
2019-03-23T00:30:24.659Z,54.98
2019-03-23T00:32:53.565Z,60.40
2019-03-23T00:35:22.483Z,63.00
2019-03-23T00:37:51.387Z,60.30
2019-03-23T00:40:20.331Z,57.73
2019-03-23T00:42:49.265Z,62.33
2019-03-23T00:45:18.534Z,59.75
2019-03-23T00:47:47.531Z,50.70
2019-03-23T00:50:16.412Z,49.73
2019-03-23T00:52:45.311Z,57.93
2019-03-23T00:55:14.223Z,59.98
2019-03-23T00:57:43.110Z,57.20
2019-03-23T01:00:12.211Z,44.73
2019-03-23T01:02:41.973Z,51.93
2019-03-23T01:05:11.018Z,56.05
2019-03-23T01:07:40.011Z,54.07
2019-03-23T01:10:09.999Z,55.40
2019-03-23T01:12:39.887Z,53.20
2019-03-23T01:15:09.000Z,62.57
2019-03-23T01:17:37.940Z,53.73
2019-03-23T01:20:08.106Z,49.30
2019-03-23T01:22:37.079Z,55.17
2019-03-23T01:25:06.155Z,58.83
2019-03-23T01:27:35.083Z,55.70
2019-03-23T01:30:04.659Z,64.00
2019-03-23T01:32:33.571Z,54.37
2019-03-23T01:35:02.554Z,56.10
2019-03-23T01:37:32.006Z,58.73
2019-03-23T01:40:00.911Z,59.40
2019-03-23T01:42:29.859Z,60.65
2019-03-23T01:44:58.785Z,51.88
2019-03-23T01:47:27.677Z,56.53
2019-03-23T01:49:56.613Z,51.33
2019-03-23T01:52:25.570Z,55.60
2019-03-23T01:54:54.457Z,51.73
2019-03-23T01:57:23.404Z,53.58
2019-03-23T01:59:52.486Z,57.73
2019-03-23T02:02:21.451Z,58.90
2019-03-23T02:04:50.379Z,58.07
2019-03-23T02:07:19.303Z,58.87
2019-03-23T02:09:48.199Z,59.20
2019-03-23T02:12:18.090Z,47.50
2019-03-23T02:14:46.986Z,59.97
2019-03-23T02:17:15.870Z,57.87
2019-03-23T02:19:44.783Z,53.78
2019-03-23T02:22:13.672Z,51.63
2019-03-23T02:24:43.123Z,55.90
2019-03-23T02:27:12.115Z,56.13
2019-03-23T02:29:41.082Z,56.58
2019-03-23T02:32:10.082Z,54.50
2019-03-23T02:34:38.998Z,62.78
2019-03-23T02:37:07.874Z,54.07
2019-03-23T02:39:36.837Z,56.20
2019-03-23T02:42:05.849Z,49.20
2019-03-23T02:44:34.856Z,52.90
2019-03-23T02:47:03.806Z,55.53
2019-03-23T02:49:32.699Z,56.07
2019-03-23T02:52:02.801Z,50.00
2019-03-23T02:54:31.687Z,56.13
2019-03-23T02:57:00.585Z,63.30
2019-03-23T02:59:29.504Z,55.67
2019-03-23T03:01:58.983Z,71.12
2019-03-23T03:04:27.961Z,57.83
2019-03-23T03:06:56.927Z,55.90
2019-03-23T03:09:26.796Z,55.33
2019-03-23T03:11:55.685Z,78.80
2019-03-23T03:14:24.590Z,61.10
2019-03-23T03:16:54.447Z,59.30
2019-03-23T03:19:23.341Z,60.67
2019-03-23T03:21:52.262Z,61.10
2019-03-23T03:24:21.144Z,59.33
2019-03-23T03:26:50.040Z,57.47
2019-03-23T03:29:19.051Z,55.97
2019-03-23T03:31:47.969Z,58.63
2019-03-23T03:34:17.000Z,65.83
2019-03-23T03:36:45.892Z,59.57
2019-03-23T03:39:15.798Z,59.07
2019-03-23T03:41:44.676Z,65.07
2019-03-23T03:44:13.987Z,61.23
2019-03-23T03:46:42.949Z,62.37
2019-03-23T03:49:13.014Z,67.85
2019-03-23T03:51:42.044Z,62.73
2019-03-23T03:54:10.954Z,57.80
2019-03-23T03:56:40.572Z,56.83
2019-03-23T03:59:09.541Z,61.05
2019-03-23T04:01:38.464Z,59.80
2019-03-23T04:04:07.368Z,59.93
2019-03-23T04:06:36.308Z,58.00
2019-03-23T04:09:06.278Z,63.60
2019-03-23T04:11:35.179Z,61.53
2019-03-23T04:14:04.067Z,57.93
2019-03-23T04:16:32.959Z,52.93
2019-03-23T04:19:01.875Z,62.13
2019-03-23T04:21:35.453Z,64.30
2019-03-23T04:24:04.365Z,58.65
2019-03-23T04:26:33.303Z,56.63
2019-03-23T04:29:02.226Z,57.60
2019-03-23T04:31:31.139Z,55.23
2019-03-23T04:34:00.043Z,54.60
2019-03-23T04:36:29.036Z,53.55
2019-03-23T04:38:57.919Z,53.97
2019-03-23T04:41:26.901Z,55.05
2019-03-23T04:43:55.824Z,57.27
2019-03-23T04:46:24.877Z,50.25
2019-03-23T04:48:53.712Z,53.33
2019-03-23T04:51:22.668Z,56.48
2019-03-23T04:53:51.580Z,59.93
2019-03-23T04:56:20.554Z,55.90
2019-03-23T04:58:49.474Z,55.20
2019-03-23T05:01:18.459Z,55.52
2019-03-23T05:03:47.365Z,45.03
2019-03-23T05:06:16.327Z,52.25
2019-03-23T05:08:45.214Z,52.20
2019-03-23T05:11:14.199Z,57.05
2019-03-23T05:13:43.120Z,56.50
2019-03-23T05:16:12.074Z,58.48
2019-03-23T05:18:40.967Z,49.27
2019-03-23T05:21:10.007Z,59.60
2019-03-23T05:23:39.599Z,58.73
2019-03-23T05:26:08.560Z,58.80
2019-03-23T05:28:37.467Z,60.20
2019-03-23T05:31:07.174Z,57.47
2019-03-23T05:33:36.067Z,57.65
2019-03-23T05:36:04.999Z,56.83
2019-03-23T05:38:44.016Z,54.08
2019-03-23T05:41:04.963Z,59.38
2019-03-23T05:43:33.882Z,51.97
2019-03-23T05:46:03.391Z,54.80
2019-03-23T05:48:32.283Z,50.73
2019-03-23T05:51:01.239Z,56.77
2019-03-23T05:53:30.116Z,53.77
2019-03-23T05:55:59.010Z,50.67
2019-03-23T05:58:27.914Z,46.23
2019-03-23T06:00:56.811Z,57.98
2019-03-23T06:03:25.737Z,50.40
2019-03-23T06:05:54.719Z,55.17
2019-03-23T06:08:23.622Z,53.83
2019-03-23T06:10:52.627Z,58.50
2019-03-23T06:13:21.527Z,58.93
2019-03-23T06:15:50.463Z,57.15
2019-03-23T06:18:19.378Z,63.37
2019-03-23T06:20:48.271Z,54.80
2019-03-23T06:23:17.238Z,56.33
2019-03-23T06:25:46.120Z,55.67
2019-03-23T06:28:15.010Z,58.57
2019-03-23T06:30:43.923Z,60.90
2019-03-23T06:33:12.850Z,59.37
2019-03-23T06:35:42.727Z,55.17
2019-03-23T06:38:11.627Z,58.20
2019-03-23T06:40:40.535Z,56.18
2019-03-23T06:43:09.439Z,62.37
2019-03-23T06:45:38.324Z,57.03
2019-03-23T06:48:07.219Z,63.23
2019-03-23T06:50:36.127Z,59.43
2019-03-23T06:53:05.016Z,57.77
2019-03-23T06:55:33.915Z,62.30
2019-03-23T06:58:02.827Z,62.78
2019-03-23T07:00:31.711Z,68.27
2019-03-23T07:03:00.620Z,63.98
2019-03-23T07:05:29.507Z,65.37
2019-03-23T07:07:58.443Z,66.60
2019-03-23T07:10:27.334Z,61.10
2019-03-23T07:12:56.223Z,69.27
2019-03-23T07:15:25.131Z,66.20
2019-03-23T07:17:54.026Z,62.30
2019-03-23T07:20:22.919Z,61.60
2019-03-23T07:22:51.853Z,62.37
2019-03-23T07:25:20.797Z,62.60
2019-03-23T07:27:49.801Z,69.67
2019-03-23T07:30:18.737Z,62.13
2019-03-23T07:32:47.708Z,68.00
2019-03-23T07:35:16.730Z,67.70
2019-03-23T07:37:45.649Z,60.10
2019-03-23T07:40:14.551Z,68.20
2019-03-23T07:42:43.471Z,16.03
2019-03-23T07:45:12.804Z,20.82
2019-03-23T07:47:41.703Z,17.90
2019-03-23T07:50:11.739Z,21.73
2019-03-23T07:52:40.632Z,18.93
2019-03-23T07:55:10.280Z,20.70
2019-03-23T07:57:39.367Z,20.45
2019-03-23T08:00:08.557Z,19.80
2019-03-23T08:02:37.467Z,20.07
2019-03-23T08:05:06.515Z,20.43
2019-03-23T08:07:35.420Z,20.93
2019-03-23T08:10:04.576Z,25.23
2019-03-23T08:12:34.443Z,22.87
2019-03-23T08:15:03.416Z,24.27
2019-03-23T08:17:32.339Z,21.67
2019-03-23T08:20:01.762Z,27.35
2019-03-23T08:22:30.726Z,23.10
2019-03-23T08:24:59.682Z,25.00
2019-03-23T08:27:28.567Z,24.37
2019-03-23T08:29:57.969Z,26.65
2019-03-23T08:32:26.878Z,26.60
2019-03-23T08:34:58.007Z,22.05
2019-03-23T08:37:26.307Z,23.98
2019-03-23T08:39:55.191Z,25.57
2019-03-23T08:42:24.643Z,58.78
2019-03-23T08:44:53.559Z,58.58
2019-03-23T08:47:22.553Z,64.00
2019-03-23T08:49:52.431Z,59.63
2019-03-23T08:52:21.320Z,41.17
2019-03-23T08:54:50.211Z,54.40
2019-03-23T08:57:19.135Z,62.43
2019-03-23T08:59:48.031Z,66.10
2019-03-23T09:02:16.947Z,68.27
2019-03-23T09:04:45.887Z,62.03
2019-03-23T09:07:14.770Z,53.97
2019-03-23T09:09:43.668Z,58.20
2019-03-23T09:12:12.591Z,61.57
2019-03-23T09:14:41.488Z,57.63
2019-03-23T09:17:10.385Z,61.80
2019-03-23T09:19:39.395Z,64.63
2019-03-23T09:22:08.295Z,49.40
2019-03-23T09:24:37.190Z,56.63
2019-03-23T09:27:06.123Z,59.35
2019-03-23T09:29:35.027Z,58.93
2019-03-23T09:32:03.931Z,52.00
2019-03-23T09:34:32.843Z,51.70
2019-03-23T09:37:01.784Z,52.35
2019-03-23T09:39:30.675Z,51.90
2019-03-23T09:41:59.785Z,55.70
2019-03-23T09:44:28.719Z,50.23
2019-03-23T09:46:57.678Z,57.03
2019-03-23T09:49:26.567Z,53.70
2019-03-23T09:51:55.499Z,51.85
2019-03-23T09:54:24.391Z,51.60
2019-03-23T09:56:53.279Z,54.33
2019-03-23T09:59:22.175Z,51.90
2019-03-23T10:01:51.135Z,45.30
2019-03-23T10:04:20.059Z,46.87
2019-03-23T10:06:48.991Z,50.80
2019-03-23T10:09:17.891Z,46.83
2019-03-23T10:11:46.786Z,41.10
2019-03-23T10:14:15.672Z,53.27
2019-03-23T10:16:44.651Z,43.33
2019-03-23T10:19:13.555Z,49.23
2019-03-23T10:21:42.445Z,48.58
2019-03-23T10:24:11.335Z,45.67
2019-03-23T10:26:40.591Z,52.55
2019-03-23T10:29:09.495Z,37.78
2019-03-23T10:31:38.471Z,38.58
2019-03-23T10:34:07.368Z,47.20
2019-03-23T10:36:36.307Z,55.45
2019-03-23T10:39:06.027Z,52.77
2019-03-23T10:41:34.943Z,47.27
2019-03-23T10:44:03.835Z,55.40
2019-03-23T10:46:32.747Z,46.03
2019-03-23T10:49:01.640Z,50.10
2019-03-23T10:51:30.523Z,48.43
2019-03-23T10:53:59.427Z,48.00
2019-03-23T10:56:28.308Z,41.60
2019-03-23T10:58:57.219Z,47.93
2019-03-23T11:01:26.123Z,20.03
2019-03-23T11:03:55.028Z,18.40
2019-03-23T11:06:23.911Z,20.17
2019-03-23T11:08:52.823Z,25.80
2019-03-23T11:11:21.702Z,23.23
2019-03-23T11:13:50.580Z,22.73
2019-03-23T11:16:19.475Z,20.97
2019-03-23T11:18:48.423Z,21.20
2019-03-23T11:21:17.337Z,23.40
2019-03-23T11:23:46.218Z,24.40
2019-03-23T11:26:15.146Z,19.87
2019-03-23T11:28:44.043Z,21.83
2019-03-23T11:31:12.940Z,20.47
2019-03-23T11:33:41.931Z,23.00
2019-03-23T11:36:10.904Z,24.30
2019-03-23T11:38:39.796Z,20.97
2019-03-23T11:41:08.747Z,24.27
2019-03-23T11:43:37.651Z,21.70
2019-03-23T11:46:06.593Z,19.87
2019-03-23T11:48:35.460Z,20.63
2019-03-23T11:51:04.356Z,23.07
2019-03-23T11:53:33.275Z,22.90
2019-03-23T11:56:02.201Z,21.80
2019-03-23T11:58:31.074Z,19.53
2019-03-23T12:00:59.986Z,19.77
2019-03-23T12:03:28.870Z,19.50
2019-03-23T12:05:57.850Z,20.97
2019-03-23T12:08:26.730Z,17.02
2019-03-23T12:11:02.848Z,17.90
2019-03-23T12:13:26.481Z,20.35
2019-03-23T12:15:55.375Z,23.65
2019-03-23T12:18:24.434Z,19.48
2019-03-23T12:20:53.363Z,18.90
2019-03-23T12:23:22.294Z,22.13
2019-03-23T12:25:51.215Z,17.17
2019-03-23T12:28:20.228Z,19.73
2019-03-23T12:30:49.143Z,22.73
2019-03-23T12:33:18.068Z,21.93
2019-03-23T12:35:46.953Z,22.47
2019-03-23T12:38:15.923Z,18.03
2019-03-23T12:40:44.823Z,20.63
2019-03-23T12:43:13.711Z,17.67
2019-03-23T12:45:42.616Z,16.63
2019-03-23T12:48:12.564Z,22.33
2019-03-23T12:50:41.486Z,19.83
2019-03-23T12:53:10.337Z,17.30
2019-03-23T12:55:39.210Z,18.02
2019-03-23T12:58:08.158Z,19.03
2019-03-23T13:00:37.591Z,24.18
2019-03-23T13:03:07.456Z,41.17
2019-03-23T13:05:36.351Z,38.57
2019-03-23T13:08:06.234Z,43.92
2019-03-23T13:10:35.120Z,47.97
2019-03-23T13:13:04.401Z,41.95
2019-03-23T13:15:33.331Z,42.73
2019-03-23T13:18:03.180Z,41.28
2019-03-23T13:20:32.166Z,35.57
2019-03-23T13:23:01.125Z,41.93
2019-03-23T13:25:30.013Z,43.40
2019-03-23T13:27:58.898Z,34.37
2019-03-23T13:30:27.787Z,38.27
2019-03-23T13:32:56.702Z,38.50
2019-03-23T13:35:25.591Z,35.53
2019-03-23T13:37:54.660Z,40.67
2019-03-23T13:40:23.587Z,33.40
2019-03-23T13:42:52.497Z,31.87
2019-03-23T13:45:21.385Z,33.60
2019-03-23T13:47:50.261Z,33.20
2019-03-23T13:50:25.606Z,38.97
2019-03-23T13:52:54.595Z,35.93
2019-03-23T13:55:31.043Z,33.73
2019-03-23T13:58:10.238Z,28.65
2019-03-23T14:00:39.131Z,34.70
2019-03-23T14:03:08.621Z,42.15
2019-03-23T14:05:37.547Z,40.10
2019-03-23T14:08:06.488Z,40.67
2019-03-23T14:10:35.390Z,34.97
2019-03-23T14:13:04.359Z,37.27
2019-03-23T14:15:33.269Z,35.60
2019-03-23T14:18:03.239Z,33.23
2019-03-23T14:20:32.138Z,31.90
2019-03-23T14:23:02.936Z,30.67
2019-03-23T14:25:31.606Z,30.17
2019-03-23T14:28:00.510Z,32.70
2019-03-23T14:30:29.403Z,30.00
2019-03-23T14:32:58.299Z,29.40
2019-03-23T14:35:27.194Z,31.47
2019-03-23T14:37:56.173Z,27.87
2019-03-23T14:40:25.438Z,29.87
2019-03-23T14:42:54.362Z,26.75
2019-03-23T14:45:23.276Z,24.07
2019-03-23T14:47:52.159Z,27.23
2019-03-23T14:50:21.167Z,30.68
2019-03-23T14:52:50.054Z,27.67
2019-03-23T14:55:19.367Z,27.13
2019-03-23T14:57:48.244Z,27.77
2019-03-23T15:00:20.425Z,24.72
2019-03-23T15:02:49.322Z,18.70
2019-03-23T15:05:18.215Z,25.10
2019-03-23T15:07:47.211Z,29.18
2019-03-23T15:10:16.099Z,23.65
2019-03-23T15:12:45.425Z,26.25
2019-03-23T15:15:14.351Z,27.17
2019-03-23T15:17:48.887Z,27.10
2019-03-23T15:20:13.855Z,17.70
2019-03-23T15:22:42.744Z,19.47
2019-03-23T15:25:12.238Z,23.05
2019-03-23T15:27:41.153Z,22.13
2019-03-23T15:30:10.118Z,23.00
2019-03-23T15:32:39.056Z,21.70
2019-03-23T15:35:08.183Z,22.95
2019-03-23T15:37:37.079Z,23.10
2019-03-23T15:40:06.178Z,27.03
2019-03-23T15:42:36.065Z,21.13
2019-03-23T15:45:06.027Z,25.35
2019-03-23T15:47:34.935Z,25.33
2019-03-23T15:50:03.942Z,20.82
2019-03-23T15:52:32.838Z,19.48
2019-03-23T15:55:03.257Z,21.27
2019-03-23T15:57:32.607Z,21.52
2019-03-23T16:00:01.503Z,18.53
2019-03-23T16:02:31.895Z,21.42
2019-03-23T16:05:00.855Z,20.32
2019-03-23T16:07:29.919Z,19.67
2019-03-23T16:09:59.268Z,22.13
2019-03-23T16:12:34.725Z,17.77
2019-03-23T16:14:58.684Z,19.50
2019-03-23T16:17:27.669Z,16.55
2019-03-23T16:19:56.583Z,16.82
2019-03-23T16:22:25.822Z,18.55
2019-03-23T16:24:54.711Z,18.05
2019-03-23T16:27:23.666Z,17.12
2019-03-23T16:29:52.563Z,21.47
2019-03-23T16:32:21.456Z,17.42
2019-03-23T16:34:50.365Z,15.63
2019-03-23T16:37:20.247Z,17.48
2019-03-23T16:39:49.139Z,13.43
2019-03-23T16:42:18.051Z,17.10
2019-03-23T16:44:46.941Z,16.80
2019-03-23T16:47:15.831Z,18.50
2019-03-23T16:49:45.048Z,17.67
2019-03-23T16:52:14.023Z,14.50
2019-03-23T16:54:42.903Z,12.18
2019-03-23T16:57:11.783Z,9.60
2019-03-23T16:59:40.689Z,13.90
2019-03-23T17:02:09.643Z,10.93
2019-03-23T17:04:38.531Z,14.30
2019-03-23T17:07:07.429Z,15.33
2019-03-23T17:09:36.312Z,16.60
2019-03-23T17:12:05.375Z,6.28
2019-03-23T17:14:34.250Z,12.70
2019-03-23T17:17:03.138Z,14.50
2019-03-23T17:19:32.101Z,15.83
2019-03-23T17:22:01.008Z,12.40
2019-03-23T17:24:30.860Z,20.93
2019-03-23T17:26:59.774Z,14.20
2019-03-23T17:29:28.673Z,16.67
2019-03-23T17:31:57.555Z,10.87
2019-03-23T17:34:26.566Z,14.13
2019-03-23T17:36:55.442Z,16.53
2019-03-23T17:39:24.511Z,17.73
2019-03-23T17:41:53.403Z,15.40
2019-03-23T17:44:23.916Z,19.53
2019-03-23T17:46:53.138Z,19.30
2019-03-23T17:49:22.020Z,15.70
2019-03-23T17:51:50.925Z,18.57
2019-03-23T17:54:20.074Z,15.60
2019-03-23T17:56:50.028Z,14.15
2019-03-23T17:59:18.931Z,16.82
2019-03-23T18:01:47.823Z,17.55
2019-03-23T18:04:17.138Z,17.57
2019-03-23T18:06:46.015Z,15.10
2019-03-23T18:09:15.915Z,12.30
2019-03-23T18:11:44.819Z,16.37
2019-03-23T18:14:13.722Z,10.00
2019-03-23T18:16:43.435Z,14.38
2019-03-23T18:19:13.275Z,13.00
2019-03-23T18:21:42.147Z,7.93
2019-03-23T18:24:11.044Z,7.72
2019-03-23T18:26:39.951Z,16.83
2019-03-23T18:29:09.255Z,13.13
2019-03-23T18:31:38.251Z,11.37
2019-03-23T18:34:07.151Z,11.33
2019-03-23T18:36:36.035Z,9.17
2019-03-23T18:39:05.947Z,11.67
2019-03-23T18:41:34.947Z,11.50
2019-03-23T18:44:03.863Z,11.95
2019-03-23T18:46:33.726Z,10.63
2019-03-23T18:49:02.622Z,7.47
2019-03-23T18:51:31.502Z,10.33
2019-03-23T18:54:00.383Z,13.47
2019-03-23T18:56:29.350Z,7.70
2019-03-23T18:58:58.255Z,9.93
2019-03-23T19:01:27.168Z,7.33
2019-03-23T19:03:56.047Z,7.47
2019-03-23T19:06:24.923Z,8.27
2019-03-23T19:08:53.828Z,9.03
2019-03-23T19:11:23.683Z,11.38
2019-03-23T19:13:52.647Z,6.28
2019-03-23T19:16:21.538Z,10.93
2019-03-23T19:18:50.449Z,10.13
2019-03-23T19:21:19.323Z,9.43
2019-03-23T19:23:48.275Z,9.18
2019-03-23T19:26:17.170Z,7.43
2019-03-23T19:28:46.047Z,6.63
2019-03-23T19:31:14.948Z,8.93
2019-03-23T19:33:43.831Z,9.67
2019-03-23T19:36:12.707Z,6.33
2019-03-23T19:38:41.615Z,7.72
2019-03-23T19:41:10.517Z,6.62
2019-03-23T19:43:48.448Z,2.60
2019-03-23T19:46:09.997Z,5.00
2019-03-23T19:48:38.892Z,10.77
2019-03-23T19:51:07.783Z,6.87
2019-03-23T19:53:36.698Z,13.13
2019-03-23T19:56:05.579Z,11.40
2019-03-23T19:58:34.455Z,13.17
2019-03-23T20:01:03.363Z,11.37
2019-03-23T20:03:32.259Z,10.10
2019-03-23T20:06:01.443Z,10.28
2019-03-23T20:08:30.348Z,9.10
2019-03-23T20:10:59.227Z,12.40
2019-03-23T20:13:29.074Z,6.93
2019-03-23T20:15:57.959Z,9.70
2019-03-23T20:18:27.573Z,7.03
2019-03-23T20:20:56.463Z,7.85
2019-03-23T20:23:25.342Z,9.88
2019-03-23T20:25:54.302Z,13.23
2019-03-23T20:28:23.192Z,13.50
2019-03-23T20:30:52.147Z,7.53
2019-03-23T20:33:21.115Z,6.50
2019-03-23T20:35:51.079Z,13.28
2019-03-23T20:38:19.967Z,12.43
2019-03-23T20:40:49.287Z,5.45
2019-03-23T20:43:18.151Z,9.17
2019-03-23T20:45:47.161Z,10.53
2019-03-23T20:48:16.062Z,7.40
2019-03-23T20:50:45.158Z,12.00
2019-03-23T20:53:15.069Z,11.37
2019-03-23T20:55:43.954Z,11.50
2019-03-23T20:58:13.810Z,10.63
2019-03-23T21:00:42.722Z,10.50
2019-03-23T21:03:11.604Z,11.80
2019-03-23T21:05:40.491Z,11.83
2019-03-23T21:08:09.381Z,9.07
2019-03-23T21:10:38.279Z,9.47
2019-03-23T21:13:07.237Z,7.83
2019-03-23T21:15:36.108Z,7.58
2019-03-23T21:18:05.031Z,11.40
2019-03-23T21:20:33.919Z,7.53
2019-03-23T21:25:28.379Z,7.30
2019-03-23T21:27:57.273Z,8.73
2019-03-23T21:30:26.179Z,9.28
2019-03-23T21:32:55.055Z,8.27
2019-03-23T21:35:23.930Z,8.97
2019-03-23T21:37:52.826Z,5.90
2019-03-23T21:40:21.703Z,9.48
2019-03-23T21:42:50.616Z,10.70
2019-03-23T21:45:19.500Z,7.90
2019-03-23T21:47:48.399Z,9.15
2019-03-23T21:50:17.274Z,9.30
2019-03-23T21:52:46.163Z,7.47
2019-03-23T21:55:15.093Z,9.37
2019-03-23T21:57:43.955Z,11.97
2019-03-23T22:00:14.302Z,6.20
2019-03-23T22:02:43.186Z,7.33
2019-03-23T22:05:12.096Z,11.03
2019-03-23T22:07:41.001Z,9.17
2019-03-23T22:10:09.872Z,8.50
2019-03-23T22:12:38.744Z,8.07
2019-03-23T22:15:07.936Z,6.80
2019-03-23T22:17:36.811Z,6.72
2019-03-23T22:20:06.427Z,8.23
2019-03-23T22:22:35.423Z,6.60
2019-03-23T22:25:04.622Z,8.65
2019-03-23T22:27:33.519Z,11.87
2019-03-23T22:30:02.392Z,5.83
2019-03-23T22:32:31.474Z,10.00
2019-03-23T22:35:00.431Z,7.13
2019-03-23T22:37:29.686Z,10.23
2019-03-23T22:39:58.744Z,7.27
2019-03-23T22:42:27.618Z,4.87
2019-03-23T22:44:56.508Z,14.33
2019-03-23T22:47:25.408Z,9.23
2019-03-23T22:49:54.293Z,10.97
2019-03-23T22:52:23.188Z,8.80
2019-03-23T22:54:52.091Z,8.68
2019-03-23T22:57:20.971Z,4.17
2019-03-23T22:59:49.854Z,5.07
2019-03-23T23:02:18.935Z,9.20
2019-03-23T23:04:47.831Z,10.23
2019-03-23T23:07:16.754Z,6.97
2019-03-23T23:09:45.603Z,11.00
2019-03-23T23:12:14.479Z,4.97
2019-03-23T23:14:44.799Z,8.48
2019-03-23T23:17:13.694Z,9.78
2019-03-23T23:19:42.606Z,9.03
2019-03-23T23:22:11.472Z,5.70
2019-03-23T23:24:40.351Z,11.67
2019-03-23T23:27:09.277Z,9.57
2019-03-23T23:29:38.146Z,5.17
2019-03-23T23:32:07.048Z,8.20
2019-03-23T23:34:36.011Z,4.70
2019-03-23T23:37:04.967Z,12.43
2019-03-23T23:39:33.858Z,5.80
2019-03-23T23:42:02.879Z,6.70
2019-03-23T23:44:31.797Z,11.77
2019-03-23T23:47:00.838Z,8.37
2019-03-23T23:49:29.720Z,6.55
2019-03-23T23:51:58.626Z,19.67
2019-03-23T23:54:27.515Z,14.73
2019-03-23T23:56:57.142Z,9.78
2019-03-23T23:59:27.713Z,3.27
